Time;durP1;ratioP1;P1;durP2;ratioP2;P2;SDS_P1;SDS_P2;PMS_P1;PMS_P2;Temp;Humidity;BMP_temperature;BMP_pressure;BME280_temperature;BME280_humidity;BME280_pressure;Samples;Min_cycle;Max_cycle;Signal;HPM_P1;HPM_P2
2023/05/05 00:02:07;;;;;;;24.17;19.88;;;;;;;15.63;64.77;99875.53;5073998;28;20405;-77
2023/05/05 00:04:33;;;;;;;22.60;18.58;;;;;;;15.50;64.22;99848.84;5073688;28;20104;-76
2023/05/05 00:06:58;;;;;;;25.38;21.02;;;;;;;15.21;64.16;99791.47;5073908;28;20031;-75
2023/05/05 00:09:23;;;;;;;23.45;19.83;;;;;;;15.43;64.32;99832.84;5073781;28;20025;-77
2023/05/05 00:11:49;;;;;;;23.25;19.90;;;;;;;15.57;64.97;99850.50;5072524;28;20103;-76
2023/05/05 00:14:15;;;;;;;29.75;22.73;;;;;;;15.62;64.92;99868.56;5073995;28;20032;-75
2023/05/05 00:16:41;;;;;;;24.90;21.48;;;;;;;15.47;65.30;99851.91;5075150;28;20532;-76
2023/05/05 00:19:06;;;;;;;25.58;20.42;;;;;;;15.33;65.34;99831.63;5075962;28;20016;-78
2023/05/05 00:21:32;;;;;;;26.10;21.90;;;;;;;15.30;65.92;99824.03;5074079;28;20028;-73
2023/05/05 00:23:57;;;;;;;27.23;19.75;;;;;;;15.47;65.81;99850.06;5073766;28;20032;-75
2023/05/05 00:26:22;;;;;;;27.55;20.65;;;;;;;15.41;65.89;99839.41;5072511;28;20093;-73
2023/05/05 00:28:48;;;;;;;29.38;21.77;;;;;;;14.81;65.77;99742.69;5073387;28;20044;-76
2023/05/05 00:31:17;;;;;;;27.42;21.90;;;;;;;15.35;66.15;99834.88;5072272;28;20119;-77
2023/05/05 00:33:42;;;;;;;26.42;21.77;;;;;;;15.51;65.88;99882.41;5073429;28;20529;-76
2023/05/05 00:36:08;;;;;;;26.55;21.13;;;;;;;15.50;65.82;99860.31;5073314;28;20024;-76
2023/05/05 00:38:33;;;;;;;27.65;22.38;;;;;;;15.20;66.10;99822.59;5073311;28;20024;-75
2023/05/05 00:40:59;;;;;;;26.70;21.40;;;;;;;14.96;66.46;99777.09;5073697;28;20027;-76
2023/05/05 00:43:24;;;;;;;28.95;22.25;;;;;;;15.47;66.57;99863.38;5071966;28;20021;-77
2023/05/05 00:45:58;;;;;;;22.27;18.45;;;;;;;14.82;66.35;99757.63;5073241;28;20382;-76
2023/05/05 00:48:24;;;;;;;27.23;21.40;;;;;;;15.49;66.29;99866.66;5071848;28;20417;-74
2023/05/05 00:50:50;;;;;;;26.50;19.67;;;;;;;15.05;66.44;99803.31;5073174;28;20028;-76
2023/05/05 00:53:16;;;;;;;25.90;19.67;;;;;;;15.47;66.40;99858.03;5073136;28;20020;-76
2023/05/05 00:55:41;;;;;;;25.63;19.30;;;;;;;15.08;66.29;99794.13;5071814;28;20031;-76
2023/05/05 00:58:07;;;;;;;23.23;18.95;;;;;;;15.06;66.43;99809.47;5073189;28;20074;-76
2023/05/05 01:00:33;;;;;;;24.75;19.67;;;;;;;15.09;66.55;99807.22;5071607;28;20032;-75
2023/05/05 01:02:58;;;;;;;26.90;20.55;;;;;;;15.50;66.50;99864.81;5072838;28;20025;-75
2023/05/05 01:05:26;;;;;;;26.05;20.17;;;;;;;15.47;66.49;99859.88;5072769;28;20020;-76
2023/05/05 01:08:09;;;;;;;26.25;20.35;;;;;;;15.48;66.42;99864.19;5071408;28;20111;-75
2023/05/05 01:10:44;;;;;;;28.25;22.55;;;;;;;14.80;66.35;99762.31;5071337;28;20027;-76
2023/05/05 01:13:35;;;;;;;26.08;19.38;;;;;;;15.40;66.74;99849.22;5072585;28;20028;-77
2023/05/05 01:16:16;;;;;;;26.95;20.92;;;;;;;15.47;66.52;99858.03;5072440;28;20535;-76
2023/05/05 01:19:17;;;;;;;26.95;20.30;;;;;;;15.17;66.54;99812.34;5072456;28;20050;-76
2023/05/05 01:21:48;;;;;;;27.40;20.65;;;;;;;15.03;66.70;99786.75;5072392;28;20030;-76
2023/05/05 01:24:37;;;;;;;26.90;20.13;;;;;;;14.99;66.25;99772.22;5072488;28;20025;-75
2023/05/05 01:27:37;;;;;;;24.10;18.65;;;;;;;15.51;66.65;99859.28;5072412;28;20048;-77
2023/05/05 01:30:11;;;;;;;23.98;18.40;;;;;;;15.42;66.36;99828.56;5072359;28;20169;-76
2023/05/05 01:32:59;;;;;;;22.98;18.10;;;;;;;14.71;66.02;99710.34;5070860;28;20031;-75
2023/05/05 01:35:29;;;;;;;23.88;19.00;;;;;;;15.60;66.10;99849.28;5072002;28;20048;-76
2023/05/05 01:38:01;;;;;;;24.50;19.35;;;;;;;15.16;66.16;99772.66;5072169;28;20440;-76
2023/05/05 01:40:32;;;;;;;27.50;19.80;;;;;;;15.58;66.13;99838.84;5072026;28;20501;-76
2023/05/05 01:43:00;;;;;;;22.42;17.67;;;;;;;15.56;65.80;99821.41;5070715;28;20113;-77
2023/05/05 01:45:30;;;;;;;23.55;18.60;;;;;;;14.79;66.01;99707.50;5070490;28;20027;-76
2023/05/05 01:47:57;;;;;;;29.23;22.55;;;;;;;15.21;66.26;99772.88;5071750;28;20024;-75
2023/05/05 01:50:26;;;;;;;31.83;24.50;;;;;;;15.59;66.07;99837.00;5071906;28;20109;-76
2023/05/05 01:52:54;;;;;;;27.95;22.88;;;;;;;15.49;66.39;99824.06;5070561;28;20028;-76
2023/05/05 01:55:21;;;;;;;25.20;20.33;;;;;;;15.09;66.21;99751.38;5071854;28;20489;-76
2023/05/05 01:57:48;;;;;;;27.42;20.55;;;;;;;15.48;66.18;99813.63;5071776;28;20030;-76
2023/05/05 02:00:16;;;;;;;25.55;20.27;;;;;;;15.24;65.79;99762.63;5071584;28;20028;-76
2023/05/05 02:02:45;;;;;;;25.35;19.27;;;;;;;15.62;66.11;99820.66;5071777;28;20497;-76
2023/05/05 02:05:12;;;;;;;26.52;20.73;;;;;;;15.31;65.86;99767.97;5071620;28;20543;-76
2023/05/05 02:07:38;;;;;;;21.13;17.83;;;;;;;15.61;66.18;99842.16;5070361;28;20027;-76
2023/05/05 02:10:06;;;;;;;21.48;17.40;;;;;;;15.23;66.29;99757.53;5071435;28;20074;-76
2023/05/05 02:12:34;;;;;;;25.63;19.85;;;;;;;15.54;66.07;99802.16;5071429;28;20519;-76
2023/05/05 02:15:01;;;;;;;24.92;19.23;;;;;;;15.61;66.06;99819.03;5071152;28;20024;-75
2023/05/05 02:17:28;;;;;;;24.85;19.55;;;;;;;15.48;66.23;99797.66;5071517;28;20099;-75
2023/05/05 02:19:57;;;;;;;23.33;19.20;;;;;;;14.97;66.52;99713.09;5071558;28;20459;-75
2023/05/05 02:22:23;;;;;;;27.90;21.20;;;;;;;15.54;66.56;99810.16;5071450;28;20031;-75
2023/05/05 02:24:48;;;;;;;27.77;21.65;;;;;;;15.12;66.52;99745.66;5071430;28;20017;-76
2023/05/05 02:27:17;;;;;;;26.27;21.02;;;;;;;15.00;66.54;99727.81;5071238;28;20540;-77
2023/05/05 02:29:47;;;;;;;30.35;23.00;;;;;;;15.32;66.88;99774.09;5071190;28;20027;-76
2023/05/05 02:32:36;;;;;;;26.90;21.73;;;;;;;14.99;66.59;99732.31;5071291;28;20562;-77
2023/05/05 02:35:11;;;;;;;27.85;21.30;;;;;;;15.53;66.99;99809.34;5071434;28;20024;-76
2023/05/05 02:37:39;;;;;;;27.45;22.33;;;;;;;15.55;67.07;99809.13;5071283;28;20027;-75
2023/05/05 02:40:08;;;;;;;27.58;19.75;;;;;;;15.12;67.08;99747.47;5071030;28;20021;-76
2023/05/05 02:42:40;;;;;;;26.95;20.45;;;;;;;14.52;67.20;99642.84;5071086;28;20027;-76
2023/05/05 02:45:11;;;;;;;27.25;21.35;;;;;;;15.52;66.92;99810.34;5070304;28;20408;-76
2023/05/05 02:47:37;;;;;;;27.90;22.30;;;;;;;15.51;66.94;99803.41;5071507;28;20020;-76
2023/05/05 02:50:04;;;;;;;34.65;24.05;;;;;;;15.23;67.24;99768.97;5071099;28;20390;-76
2023/05/05 02:52:31;;;;;;;29.25;22.92;;;;;;;15.17;67.28;99767.13;5070783;28;20067;-76
2023/05/05 02:54:57;;;;;;;29.33;23.13;;;;;;;15.47;67.08;99799.50;5070905;28;20035;-76
2023/05/05 02:57:36;;;;;;;29.10;22.40;;;;;;;15.54;67.10;99808.31;5070926;28;20031;-77
2023/05/05 03:00:17;;;;;;;25.65;19.60;;;;;;;15.19;66.65;99746.47;5071172;28;20030;-75
2023/05/05 03:02:53;;;;;;;25.50;20.73;;;;;;;14.94;66.60;99718.81;5071193;28;20040;-75
2023/05/05 03:05:22;;;;;;;26.58;20.98;;;;;;;14.82;66.79;99704.44;5070950;28;20028;-75
2023/05/05 03:07:47;;;;;;;26.33;21.00;;;;;;;15.53;66.96;99819.97;5070893;28;20025;-76
2023/05/05 03:10:20;;;;;;;24.75;19.23;;;;;;;15.38;66.58;99791.91;5069421;28;20134;-75
2023/05/05 03:12:51;;;;;;;26.52;19.33;;;;;;;14.93;66.80;99723.31;5070839;28;20017;-76
2023/05/05 03:15:18;;;;;;;23.80;18.60;;;;;;;14.87;66.60;99710.00;5071246;28;20043;-76
2023/05/05 03:17:45;;;;;;;24.08;18.70;;;;;;;15.20;66.76;99766.72;5071113;28;20094;-75
2023/05/05 03:20:11;;;;;;;23.65;19.08;;;;;;;15.09;66.63;99745.22;5072618;28;20017;-76
2023/05/05 03:22:37;;;;;;;27.50;22.15;;;;;;;15.04;66.72;99735.19;5074642;28;20409;-77
2023/05/05 03:25:03;;;;;;;29.17;21.92;;;;;;;15.59;66.35;99813.06;5071592;28;20085;-76
2023/05/05 03:27:29;;;;;;;24.85;18.92;;;;;;;15.21;66.63;99756.91;5072499;28;20119;-76
2023/05/05 03:29:54;;;;;;;21.92;18.05;;;;;;;15.39;66.08;99788.22;5074325;28;20107;-76
2023/05/05 03:32:20;;;;;;;25.55;18.85;;;;;;;15.21;66.43;99762.22;5074775;28;20056;-76
2023/05/05 03:34:45;;;;;;;23.77;18.02;;;;;;;15.63;66.47;99827.63;5074586;28;20021;-76
2023/05/05 03:37:11;;;;;;;23.38;19.33;;;;;;;15.28;66.37;99776.34;5074240;28;20063;-76
2023/05/05 03:39:36;;;;;;;24.25;19.15;;;;;;;15.65;66.62;99835.41;5074347;28;20047;-75
2023/05/05 03:42:01;;;;;;;26.42;19.73;;;;;;;15.14;66.25;99770.19;5074237;28;20094;-75
2023/05/05 03:44:27;;;;;;;30.15;21.23;;;;;;;15.16;66.35;99765.50;5073102;28;20025;-75
2023/05/05 03:46:52;;;;;;;28.40;22.45;;;;;;;15.52;66.71;99820.19;5074706;28;20028;-77
2023/05/05 03:49:17;;;;;;;32.53;24.25;;;;;;;14.92;66.90;99734.16;5075481;28;20416;-77
2023/05/05 03:51:43;;;;;;;28.77;23.20;;;;;;;15.29;66.81;99791.28;5074138;28;20511;-75
2023/05/05 03:54:08;;;;;;;29.65;23.20;;;;;;;15.61;66.84;99848.31;5072868;28;20027;-75
2023/05/05 03:56:34;;;;;;;31.92;24.85;;;;;;;15.63;66.98;99850.75;5074316;28;20413;-76
2023/05/05 03:58:59;;;;;;;30.25;24.75;;;;;;;15.31;66.85;99796.41;5074331;28;20017;-76
2023/05/05 04:01:25;;;;;;;35.40;26.83;;;;;;;15.19;66.88;99789.03;5074066;28;20020;-76
2023/05/05 04:03:50;;;;;;;33.22;26.42;;;;;;;15.33;66.80;99805.00;5074320;28;20031;-76
2023/05/05 04:06:16;;;;;;;35.22;26.40;;;;;;;15.53;66.98;99848.44;5073967;28;20489;-75
2023/05/05 04:08:41;;;;;;;34.05;25.83;;;;;;;15.31;67.35;99834.47;5073765;28;20090;-76
2023/05/05 04:11:06;;;;;;;32.00;23.88;;;;;;;15.44;67.33;99834.50;5073741;28;20100;-76
2023/05/05 04:13:32;;;;;;;34.42;25.50;;;;;;;15.55;67.15;99862.34;5073769;28;20493;-75
2023/05/05 04:15:58;;;;;;;35.97;26.27;;;;;;;15.55;67.75;99857.03;5073836;28;20024;-76
2023/05/05 04:18:24;;;;;;;36.92;27.77;;;;;;;15.48;67.56;99850.88;5073683;28;20486;-76
2023/05/05 04:20:50;;;;;;;34.10;25.55;;;;;;;15.47;67.54;99836.75;5073623;28;20017;-77
2023/05/05 04:23:15;;;;;;;33.10;24.63;;;;;;;15.53;67.40;99843.09;5073440;28;20105;-76
2023/05/05 04:25:41;;;;;;;34.00;25.55;;;;;;;15.62;67.24;99863.25;5073546;28;20394;-76
2023/05/05 04:28:06;;;;;;;32.33;23.88;;;;;;;15.06;67.35;99765.06;5073368;28;20075;-76
2023/05/05 04:30:32;;;;;;;36.30;27.73;;;;;;;15.62;67.27;99849.13;5073254;28;20024;-76
2023/05/05 04:32:57;;;;;;;34.10;27.77;;;;;;;15.22;67.49;99780.63;5073399;28;20016;-76
2023/05/05 04:35:22;;;;;;;36.60;26.48;;;;;;;15.03;67.33;99757.50;5072236;28;20029;-76
2023/05/05 04:37:48;;;;;;;34.72;26.77;;;;;;;15.38;67.43;99818.53;5073015;28;20032;-76
2023/05/05 04:40:13;;;;;;;34.63;26.77;;;;;;;15.46;67.68;99816.50;5072163;28;20017;-76
2023/05/05 04:42:39;;;;;;;34.38;26.48;;;;;;;15.27;67.36;99788.84;5073404;28;20016;-76
2023/05/05 04:45:05;;;;;;;36.25;27.60;;;;;;;15.44;67.54;99823.03;5073052;28;20143;-76
2023/05/05 04:47:35;;;;;;;36.13;28.10;;;;;;;15.23;67.78;99784.94;5073084;28;20013;-77
2023/05/05 04:50:00;;;;;;;34.53;26.25;;;;;;;15.64;67.37;99845.22;5073147;28;20449;-76
2023/05/05 04:52:26;;;;;;;38.10;28.45;;;;;;;15.07;67.57;99750.75;5073000;28;20078;-76
2023/05/05 04:54:51;;;;;;;39.00;30.38;;;;;;;15.21;67.80;99797.63;5072693;28;20047;-76
2023/05/05 04:57:16;;;;;;;37.90;28.98;;;;;;;15.46;67.41;99826.31;5072696;28;20044;-76
2023/05/05 04:59:42;;;;;;;38.53;29.95;;;;;;;15.27;67.61;99794.16;5072940;28;20420;-76
2023/05/05 05:02:07;;;;;;;38.72;28.40;;;;;;;15.63;67.71;99838.28;5072983;28;20119;-76
2023/05/05 05:04:32;;;;;;;40.50;29.77;;;;;;;15.25;67.67;99788.22;5072975;28;20513;-76
2023/05/05 05:06:58;;;;;;;48.45;31.42;;;;;;;15.41;67.65;99807.47;5072664;28;20032;-76
2023/05/05 05:09:23;;;;;;;41.28;30.50;;;;;;;15.73;67.58;99854.66;5072705;28;20096;-75
2023/05/05 05:11:49;;;;;;;43.05;31.73;;;;;;;15.13;67.71;99768.56;5072707;28;20032;-75
2023/05/05 05:14:14;;;;;;;40.10;29.75;;;;;;;15.19;67.59;99774.91;5072421;28;20493;-76
2023/05/05 05:16:40;;;;;;;40.10;30.58;;;;;;;15.41;67.39;99812.78;5072394;28;20027;-76
2023/05/05 05:19:05;;;;;;;36.55;28.77;;;;;;;15.27;67.36;99791.50;5068831;28;20023;-76
2023/05/05 05:21:30;;;;;;;37.08;28.38;;;;;;;15.20;67.46;99806.63;5070947;28;20017;-77
2023/05/05 05:23:56;;;;;;;36.83;28.85;;;;;;;15.55;67.30;99844.53;5060147;28;20025;-75
2023/05/05 05:26:22;;;;;;;38.90;30.10;;;;;;;15.18;67.76;99816.66;5072318;28;20027;-75
2023/05/05 05:28:47;;;;;;;38.70;29.60;;;;;;;15.26;67.65;99812.97;5063099;28;20053;-77
2023/05/05 05:31:13;;;;;;;39.92;31.35;;;;;;;15.41;67.50;99829.59;5050702;28;20492;-76
2023/05/05 05:33:38;;;;;;;34.15;27.73;;;;;;;15.59;67.60;99858.28;5050778;28;20036;-76
2023/05/05 05:36:04;;;;;;;37.15;26.73;;;;;;;15.29;67.25;99817.06;5051960;28;20513;-76
2023/05/05 05:38:29;;;;;;;33.42;25.08;;;;;;;15.89;67.20;99901.38;5052022;28;20035;-75
2023/05/05 05:40:55;;;;;;;33.65;26.55;;;;;;;15.87;66.58;99880.25;5060532;28;20032;-76
2023/05/05 05:43:20;;;;;;;33.03;25.60;;;;;;;15.45;66.71;99817.50;5071990;28;20557;-76
2023/05/05 05:45:45;;;;;;;32.33;24.60;;;;;;;15.57;66.30;99820.38;5070694;28;20020;-76
2023/05/05 05:48:11;;;;;;;33.53;23.48;;;;;;;16.14;66.54;99899.72;5071952;28;20031;-76
2023/05/05 05:50:36;;;;;;;31.30;23.35;;;;;;;15.89;65.92;99843.59;5070959;28;20020;-76
2023/05/05 05:53:02;;;;;;;30.98;25.23;;;;;;;15.94;65.68;99853.63;5067316;28;20031;-76
2023/05/05 05:55:27;;;;;;;27.48;22.27;;;;;;;15.94;65.37;99834.19;5051767;28;20021;-75
2023/05/05 05:57:52;;;;;;;28.00;21.42;;;;;;;15.96;65.55;99840.13;5051765;28;20424;-75
2023/05/05 06:00:19;;;;;;;30.20;22.92;;;;;;;15.95;65.37;99833.97;5051754;28;20461;-77
2023/05/05 06:02:44;;;;;;;29.65;22.05;;;;;;;16.20;65.50;99863.44;5051662;28;20031;-77
2023/05/05 06:05:09;;;;;;;26.63;21.15;;;;;;;16.06;65.22;99837.84;5051697;28;20009;-76
2023/05/05 06:07:35;;;;;;;26.27;22.55;;;;;;;15.89;65.21;99819.63;5051440;28;20036;-75
2023/05/05 06:10:00;;;;;;;26.70;20.42;;;;;;;16.42;65.32;99886.22;5064844;28;20448;-76
2023/05/05 06:12:26;;;;;;;27.05;20.17;;;;;;;16.46;65.02;99883.94;5065581;28;20135;-77
2023/05/05 06:14:51;;;;;;;23.33;18.98;;;;;;;16.10;64.81;99836.41;5070815;28;20469;-77
2023/05/05 06:17:16;;;;;;;26.58;20.05;;;;;;;16.48;64.93;99882.72;5070780;28;20024;-75
2023/05/05 06:19:42;;;;;;;22.40;17.58;;;;;;;16.10;64.37;99820.44;5069237;28;20489;-76
2023/05/05 06:22:07;;;;;;;23.77;19.00;;;;;;;16.62;64.28;99888.00;5069803;28;20107;-76
2023/05/05 06:24:33;;;;;;;19.90;16.58;;;;;;;16.51;64.46;99862.81;5070460;28;20028;-76
2023/05/05 06:26:58;;;;;;;22.50;19.50;;;;;;;16.30;63.90;99818.56;5070990;28;20409;-77
2023/05/05 06:29:25;;;;;;;22.67;17.58;;;;;;;16.22;63.95;99816.13;5070505;28;20078;-76
2023/05/05 06:31:50;;;;;;;19.00;15.27;;;;;;;16.53;63.99;99840.25;5068395;28;20521;-75
2023/05/05 06:34:16;;;;;;;19.85;15.35;;;;;;;16.49;63.51;99815.03;5071516;28;20083;-76
2023/05/05 06:36:41;;;;;;;19.95;16.08;;;;;;;16.90;63.53;99869.91;5071394;28;20020;-76
2023/05/05 06:39:06;;;;;;;18.88;15.32;;;;;;;16.34;63.37;99785.13;5069676;28;20020;-76
2023/05/05 06:41:32;;;;;;;20.20;16.35;;;;;;;16.93;63.22;99866.00;5071349;28;20020;-76
2023/05/05 06:43:57;;;;;;;18.45;14.25;;;;;;;16.93;62.69;99869.47;5070414;28;20493;-76
2023/05/05 06:46:22;;;;;;;17.25;14.38;;;;;;;16.89;62.46;99852.25;5071268;28;20023;-75
2023/05/05 06:48:48;;;;;;;17.80;14.18;;;;;;;16.98;62.20;99872.34;5065924;28;20410;-76
2023/05/05 06:51:14;;;;;;;15.15;13.32;;;;;;;16.53;62.23;99804.78;5072088;28;20029;-76
2023/05/05 06:53:40;;;;;;;14.25;12.00;;;;;;;16.48;61.97;99805.41;5071211;28;20454;-76
2023/05/05 06:56:05;;;;;;;15.00;12.50;;;;;;;16.98;61.68;99874.19;5070283;28;20099;-76
2023/05/05 06:58:31;;;;;;;15.32;12.00;;;;;;;17.00;61.26;99883.63;5070764;28;20467;-76
2023/05/05 07:00:56;;;;;;;14.82;13.15;;;;;;;16.91;61.10;99863.53;5070753;28;20025;-76
2023/05/05 07:03:21;;;;;;;13.55;12.18;;;;;;;16.87;61.33;99864.16;5072675;28;20039;-74
2023/05/05 07:05:47;;;;;;;14.70;11.38;;;;;;;16.88;60.87;99831.97;5065325;28;20523;-76
2023/05/05 07:08:12;;;;;;;14.25;12.45;;;;;;;17.13;60.78;99872.91;5073144;28;20504;-76
2023/05/05 07:10:38;;;;;;;11.75;9.98;;;;;;;16.85;60.41;99821.72;5074761;28;20032;-77
2023/05/05 07:13:05;;;;;;;11.80;10.60;;;;;;;17.18;60.55;99874.13;5073208;28;20030;-76
2023/05/05 07:15:30;;;;;;;12.23;9.80;;;;;;;17.30;60.05;99880.44;5073413;28;20115;-76
2023/05/05 07:17:56;;;;;;;10.27;8.98;;;;;;;17.37;59.73;99884.69;5078092;28;20043;-77
2023/05/05 07:20:21;;;;;;;11.75;10.13;;;;;;;16.99;59.42;99807.28;5074887;28;20472;-75
2023/05/05 07:22:47;;;;;;;12.35;10.38;;;;;;;17.51;59.16;99858.75;5073506;28;20024;-76
2023/05/05 07:25:12;;;;;;;13.90;10.02;;;;;;;17.43;59.07;99842.97;5074140;28;20047;-75
2023/05/05 07:27:38;;;;;;;12.48;10.68;;;;;;;17.59;58.72;99855.81;5073581;28;20045;-75
2023/05/05 07:30:04;;;;;;;11.63;10.43;;;;;;;17.25;58.38;99806.34;5072181;28;20108;-75
2023/05/05 07:32:29;;;;;;;11.65;9.85;;;;;;;17.64;58.28;99865.84;5074108;28;20027;-75
2023/05/05 07:34:55;;;;;;;12.95;10.88;;;;;;;17.51;58.26;99842.72;5074222;28;20032;-75
2023/05/05 07:37:20;;;;;;;11.13;9.02;;;;;;;17.62;57.95;99847.38;5074028;28;20024;-75
2023/05/05 07:39:47;;;;;;;13.73;10.30;;;;;;;17.77;58.01;99884.47;5074129;28;20116;-76
2023/05/05 07:42:13;;;;;;;11.02;9.48;;;;;;;17.51;57.97;99836.56;5074213;28;20016;-75
2023/05/05 07:44:38;;;;;;;12.85;9.95;;;;;;;17.31;57.82;99807.34;5073990;28;20394;-76
2023/05/05 07:47:03;;;;;;;12.85;10.27;;;;;;;17.63;57.60;99851.69;5074035;28;20522;-76
2023/05/05 07:49:29;;;;;;;11.57;9.65;;;;;;;17.51;57.40;99841.91;5074037;28;20029;-75
2023/05/05 07:51:54;;;;;;;12.52;11.00;;;;;;;17.45;57.60;99843.59;5074524;28;20032;-76
2023/05/05 07:54:20;;;;;;;11.25;10.15;;;;;;;17.55;57.82;99846.59;5074016;28;20021;-75
2023/05/05 07:56:46;;;;;;;11.93;9.02;;;;;;;17.76;57.55;99888.19;5073842;28;20476;-77
2023/05/05 07:59:11;;;;;;;10.80;9.52;;;;;;;17.57;57.40;99862.41;5073208;28;20103;-75
2023/05/05 08:01:37;;;;;;;15.30;10.95;;;;;;;17.43;57.22;99827.78;5072334;28;20413;-75
2023/05/05 08:04:03;;;;;;;19.58;11.43;;;;;;;17.46;57.44;99840.69;5072179;28;20031;-75
2023/05/05 08:06:30;;;;;;;13.48;10.27;;;;;;;17.41;57.38;99813.84;5071332;28;20020;-76
2023/05/05 08:08:56;;;;;;;11.65;9.88;;;;;;;17.95;57.11;99886.44;5071276;28;20493;-75
2023/05/05 08:11:22;;;;;;;12.85;11.55;;;;;;;17.96;56.95;99878.19;5071779;28;20029;-76
2023/05/05 08:13:47;;;;;;;10.57;9.48;;;;;;;18.01;56.65;99850.81;5071052;28;20073;-75
2023/05/05 08:16:13;;;;;;;11.38;9.80;;;;;;;17.68;55.99;99787.78;5073557;28;20517;-75
2023/05/05 08:18:39;;;;;;;13.88;11.88;;;;;;;17.94;56.03;99807.31;5072923;28;20025;-76
2023/05/05 08:21:08;;;;;;;13.02;11.48;;;;;;;18.31;55.76;99869.66;5073294;28;20028;-75
2023/05/05 08:23:34;;;;;;;14.77;11.77;;;;;;;18.61;55.53;99885.84;5072838;28;20085;-75
2023/05/05 08:26:01;;;;;;;15.48;11.88;;;;;;;18.30;55.23;99803.88;5073026;28;20024;-75
2023/05/05 08:28:26;;;;;;;14.48;10.05;;;;;;;18.66;55.03;99848.59;5072258;28;20529;-76
2023/05/05 08:30:52;;;;;;;13.32;9.90;;;;;;;18.98;54.88;99876.81;5072538;28;20024;-76
2023/05/05 08:33:17;;;;;;;12.30;11.00;;;;;;;18.63;54.63;99807.06;5072665;28;20337;-76
2023/05/05 08:35:43;;;;;;;16.23;11.85;;;;;;;19.03;54.70;99884.16;5072799;28;20024;-76
2023/05/05 08:38:10;;;;;;;12.90;10.88;;;;;;;19.04;54.60;99883.13;5072111;28;20107;-75
2023/05/05 08:40:37;;;;;;;11.07;9.93;;;;;;;18.68;54.09;99807.19;5072916;28;20032;-76
2023/05/05 08:43:02;;;;;;;10.77;9.10;;;;;;;19.12;53.56;99853.38;5072503;28;20016;-76
2023/05/05 08:45:28;;;;;;;13.45;11.77;;;;;;;19.42;53.12;99872.13;5071513;28;20031;-75
2023/05/05 08:47:56;;;;;;;11.63;10.45;;;;;;;19.58;52.79;99892.13;5072664;28;20024;-76
2023/05/05 08:50:25;;;;;;;12.57;10.65;;;;;;;19.47;52.73;99855.38;5072758;28;20107;-75
2023/05/05 08:53:05;;;;;;;12.13;10.50;;;;;;;19.52;52.97;99874.25;5072597;28;20073;-75
2023/05/05 08:55:34;;;;;;;12.65;11.35;;;;;;;19.54;53.02;99886.41;5071621;28;20417;-76
2023/05/05 08:58:03;;;;;;;11.40;9.90;;;;;;;19.24;53.05;99856.09;5071428;28;20031;-75
2023/05/05 09:00:29;;;;;;;11.50;10.30;;;;;;;19.50;52.75;99889.75;5071363;28;20024;-76
2023/05/05 09:02:58;;;;;;;11.63;9.27;;;;;;;19.71;52.51;99885.75;5072569;28;20021;-76
2023/05/05 09:05:24;;;;;;;12.48;10.43;;;;;;;19.80;51.80;99877.16;5072401;28;20038;-76
2023/05/05 09:07:51;;;;;;;14.02;10.88;;;;;;;19.59;51.72;99841.00;5072390;28;20505;-76
2023/05/05 09:10:17;;;;;;;11.32;9.73;;;;;;;19.73;51.36;99830.09;5072431;28;20038;-76
2023/05/05 09:12:43;;;;;;;9.48;8.48;;;;;;;20.00;50.76;99832.09;5072411;28;20567;-78
2023/05/05 09:15:13;;;;;;;10.10;8.57;;;;;;;20.21;50.39;99846.81;5072524;28;20099;-76
2023/05/05 09:17:39;;;;;;;9.32;8.43;;;;;;;20.56;49.68;99884.38;5072258;28;20429;-78
2023/05/05 09:20:12;;;;;;;13.77;11.63;;;;;;;20.54;49.69;99880.28;5072332;28;20485;-75
2023/05/05 09:22:40;;;;;;;10.23;8.93;;;;;;;20.42;49.47;99856.16;5072362;28;20029;-74
2023/05/05 09:25:07;;;;;;;12.85;8.82;;;;;;;20.48;49.56;99865.94;5072264;28;20028;-76
2023/05/05 09:27:42;;;;;;;8.70;7.90;;;;;;;20.37;49.44;99852.53;5070352;28;20522;-76
2023/05/05 09:30:09;;;;;;;8.18;7.38;;;;;;;20.30;49.55;99815.09;5071071;28;20025;-76
2023/05/05 09:32:49;;;;;;;10.20;8.93;;;;;;;20.62;49.36;99861.16;5071618;28;20099;-76
2023/05/05 09:35:15;;;;;;;8.88;8.00;;;;;;;20.46;49.78;99857.31;5070591;28;20017;-76
2023/05/05 09:37:41;;;;;;;12.43;8.90;;;;;;;20.20;49.20;99807.66;5071897;28;20104;-76
2023/05/05 09:40:08;;;;;;;8.65;7.75;;;;;;;20.42;49.78;99845.44;5071946;28;20516;-77
2023/05/05 09:42:37;;;;;;;10.95;7.75;;;;;;;20.41;49.95;99848.34;5070763;28;20418;-76
2023/05/05 09:45:18;;;;;;;8.90;8.00;;;;;;;20.81;49.24;99848.44;5061917;28;20024;-77
2023/05/05 09:47:47;;;;;;;7.70;6.97;;;;;;;20.41;48.85;99768.72;5061508;28;20029;-76
2023/05/05 09:50:17;;;;;;;8.88;7.97;;;;;;;20.89;48.72;99838.13;5067185;28;20421;-77
2023/05/05 09:52:55;;;;;;;13.38;8.50;;;;;;;20.60;48.92;99802.38;5069448;28;20520;-75
2023/05/05 09:55:21;;;;;;;9.43;7.88;;;;;;;20.43;49.19;99790.75;5058073;28;20429;-76
2023/05/05 09:57:46;;;;;;;13.75;7.45;;;;;;;20.16;49.20;99763.59;5063337;28;20111;-76
2023/05/05 10:00:13;;;;;;;10.93;8.20;;;;;;;20.38;49.53;99809.38;5068083;28;20024;-75
2023/05/05 10:02:39;;;;;;;13.18;8.45;;;;;;;20.66;48.80;99851.59;5062505;28;20032;-76
2023/05/05 10:05:05;;;;;;;9.98;8.95;;;;;;;20.95;48.43;99822.94;5047149;28;20021;-76
2023/05/05 10:07:30;;;;;;;8.57;7.28;;;;;;;21.46;48.01;99832.78;5060102;28;20043;-76
2023/05/05 10:09:56;;;;;;;8.30;6.55;;;;;;;21.24;47.17;99754.78;5067151;28;20112;-76
2023/05/05 10:12:22;;;;;;;7.72;7.00;;;;;;;21.14;46.82;99751.06;5069497;28;20024;-76
2023/05/05 10:14:51;;;;;;;9.50;8.45;;;;;;;21.30;47.02;99825.50;5053997;28;20032;-76
2023/05/05 10:17:21;;;;;;;7.93;6.45;;;;;;;20.84;47.71;99795.09;5064083;28;20117;-76
2023/05/05 10:19:48;;;;;;;11.32;7.45;;;;;;;20.62;47.92;99786.84;5068224;28;20052;-76
2023/05/05 10:22:15;;;;;;;9.00;7.18;;;;;;;20.58;48.26;99806.34;5071332;28;20024;-75
2023/05/05 10:25:08;;;;;;;7.05;6.35;;;;;;;20.48;48.36;99811.50;5065823;28;20115;-76
2023/05/05 10:27:41;;;;;;;10.63;7.50;;;;;;;20.12;49.11;99773.16;5056505;28;20060;-76
2023/05/05 10:30:10;;;;;;;9.38;7.07;;;;;;;20.13;49.28;99772.09;5067577;28;20032;-76
2023/05/05 10:32:42;;;;;;;8.98;8.02;;;;;;;20.25;48.69;99731.88;5047628;28;20029;-76
2023/05/05 10:35:10;;;;;;;7.18;6.47;;;;;;;20.37;48.43;99740.69;5055762;28;20055;-76
2023/05/05 10:37:40;;;;;;;6.30;5.70;;;;;;;20.75;47.64;99804.53;5052443;28;20029;-76
2023/05/05 10:40:08;;;;;;;5.78;5.18;;;;;;;20.38;48.21;99746.88;5047341;28;20016;-76
2023/05/05 10:42:37;;;;;;;6.78;4.43;;;;;;;20.36;48.06;99748.97;5048616;28;20029;-77
2023/05/05 10:45:04;;;;;;;5.65;4.30;;;;;;;20.58;47.90;99774.97;5047395;28;20029;-74
2023/05/05 10:47:30;;;;;;;5.05;3.78;;;;;;;19.97;47.90;99673.63;5049523;28;20063;-76
2023/05/05 10:50:06;;;;;;;5.20;3.10;;;;;;;20.15;47.16;99720.94;5045055;28;20524;-76
2023/05/05 10:52:54;;;;;;;6.18;4.20;;;;;;;20.52;47.37;99781.28;5039256;28;20025;-76
2023/05/05 10:55:30;;;;;;;8.05;6.43;;;;;;;20.52;47.19;99801.91;5030786;28;20388;-74
2023/05/05 10:57:55;;;;;;;4.43;4.03;;;;;;;20.48;47.37;99795.41;5029524;28;20458;-76
2023/05/05 11:00:47;;;;;;;5.50;4.03;;;;;;;20.35;47.20;99774.97;5031247;28;20092;-75
2023/05/05 11:03:16;;;;;;;3.53;3.22;;;;;;;20.46;47.40;99776.03;5026788;28;20057;-76
2023/05/05 11:06:19;;;;;;;4.30;3.42;;;;;;;20.43;46.81;99779.19;5030760;28;20108;-76
2023/05/05 11:08:45;;;;;;;6.10;4.07;;;;;;;20.09;47.30;99709.28;4988998;28;20090;-76
2023/05/05 11:11:11;;;;;;;3.55;3.25;;;;;;;20.48;47.03;99763.22;4989204;28;20026;-76
2023/05/05 11:13:38;;;;;;;3.50;3.20;;;;;;;20.79;46.70;99786.91;5008589;28;20041;-76
2023/05/05 11:16:05;;;;;;;4.38;2.78;;;;;;;20.85;46.51;99763.69;5030522;28;20095;-76
2023/05/05 11:18:36;;;;;;;4.10;2.90;;;;;;;20.74;45.88;99745.75;5030607;28;20026;-77
2023/05/05 11:21:15;;;;;;;3.95;2.83;;;;;;;20.33;45.88;99693.97;5041435;28;20409;-76
2023/05/05 11:23:44;;;;;;;3.83;3.50;;;;;;;20.71;46.45;99771.19;5048138;28;20083;-77